Time;durP1;ratioP1;P1;durP2;ratioP2;P2;SDS_P1;SDS_P2;PMS_P1;PMS_P2;Temp;Humidity;BMP_temperature;BMP_pressure;BME280_temperature;BME280_humidity;BME280_pressure;Samples;Min_cycle;Max_cycle;Signal;HPM_P1;HPM_P2
2022/04/21 00:00:12;;;;;;;8.10;6.03;;;5.70;60.20;;;;;;6260614;23;20177;-86
2022/04/21 00:02:43;;;;;;;7.17;5.93;;;5.60;58.30;;;;;;6251979;23;20188;-86
2022/04/21 00:05:19;;;;;;;7.17;5.77;;;5.60;59.40;;;;;;6251942;23;20165;-86
2022/04/21 00:08:04;;;;;;;9.07;6.17;;;5.50;61.60;;;;;;6252371;23;20202;-86
2022/04/21 00:10:31;;;;;;;7.73;6.30;;;5.40;60.60;;;;;;6252545;23;20517;-86
2022/04/21 00:13:01;;;;;;;9.03;6.47;;;5.30;61.50;;;;;;6253799;23;20193;-86
2022/04/21 00:15:28;;;;;;;8.17;6.43;;;5.40;61.80;;;;;;6252038;23;20256;-86
2022/04/21 00:17:56;;;;;;;9.57;6.60;;;5.40;61.60;;;;;;6251323;23;20173;-86
2022/04/21 00:20:31;;;;;;;7.77;6.20;;;5.50;62.10;;;;;;6250790;23;20224;-86
2022/04/21 00:23:29;;;;;;;7.27;5.70;;;5.50;60.90;;;;;;6252030;23;20236;-86
2022/04/21 00:25:58;;;;;;;9.20;6.97;;;5.40;61.30;;;;;;6251443;23;20236;-86
2022/04/21 00:28:31;;;;;;;8.80;6.90;;;5.30;61.90;;;;;;6252172;23;20204;-86
2022/04/21 00:31:03;;;;;;;8.23;6.60;;;5.10;63.00;;;;;;6253350;23;20220;-85
2022/04/21 00:33:31;;;;;;;9.50;6.50;;;5.10;64.30;;;;;;6252946;23;20196;-85
2022/04/21 00:35:58;;;;;;;7.07;6.07;;;5.10;64.60;;;;;;6253776;23;20557;-86
2022/04/21 00:38:26;;;;;;;9.87;6.33;;;5.20;64.30;;;;;;6250916;23;20237;-86
2022/04/21 00:40:55;;;;;;;9.57;6.40;;;5.20;64.50;;;;;;6252378;23;20548;-85
2022/04/21 00:43:22;;;;;;;11.10;6.43;;;5.10;64.80;;;;;;6252223;23;20186;-86
2022/04/21 00:46:09;;;;;;;8.07;6.40;;;5.10;64.10;;;;;;6252063;23;20212;-85
2022/04/21 00:48:37;;;;;;;8.80;6.77;;;5.10;62.60;;;;;;6255422;23;20664;-85
2022/04/21 00:51:07;;;;;;;10.60;6.60;;;5.10;64.00;;;;;;6261237;23;20185;-85
2022/04/21 00:53:35;;;;;;;8.07;6.27;;;5.00;65.60;;;;;;6262542;23;20162;-87
2022/04/21 00:56:19;;;;;;;9.27;6.77;;;4.90;65.90;;;;;;6263164;23;20162;-86
2022/04/21 00:58:49;;;;;;;8.87;6.50;;;4.70;67.20;;;;;;6261755;23;20165;-85
2022/04/21 01:04:20;;;;;;;8.47;5.67;;;4.60;69.30;;;;;;6255152;23;20188;-85
2022/04/21 01:07:08;;;;;;;8.50;6.40;;;4.60;69.30;;;;;;6254943;23;20609;-85
2022/04/21 01:10:12;;;;;;;8.87;6.30;;;4.60;69.30;;;;;;6253908;23;20280;-85
2022/04/21 01:12:44;;;;;;;7.97;6.20;;;4.50;69.20;;;;;;6255656;22;20165;-88
2022/04/21 01:15:25;;;;;;;9.13;6.07;;;4.30;69.00;;;;;;6254451;23;20181;-86
2022/04/21 01:18:01;;;;;;;8.17;5.50;;;4.20;70.90;;;;;;6257625;23;20688;-86
2022/04/21 01:23:13;;;;;;;6.77;5.83;;;4.50;69.20;;;;;;6255772;23;20495;-86
2022/04/21 01:25:43;;;;;;;7.83;5.77;;;4.60;69.30;;;;;;6254721;23;20162;-86
2022/04/21 01:28:19;;;;;;;9.60;5.80;;;4.60;70.70;;;;;;6255626;23;20617;-86
2022/04/21 01:30:49;;;;;;;7.90;5.60;;;4.60;69.30;;;;;;6256064;22;20216;-86
2022/04/21 01:33:37;;;;;;;7.70;5.80;;;4.60;69.30;;;;;;6257754;22;20260;-85
2022/04/21 01:36:15;;;;;;;7.20;5.93;;;4.60;69.30;;;;;;6254602;23;20158;-88
2022/04/21 01:42:24;;;;;;;7.30;5.77;;;4.30;69.00;;;;;;6234898;23;20150;-88
2022/04/21 01:45:01;;;;;;;7.23;5.73;;;4.20;68.90;;;;;;6252449;23;20268;-86
2022/04/21 01:47:31;;;;;;;7.07;5.70;;;4.20;70.80;;;;;;6252883;23;20173;-88
2022/04/21 01:50:07;;;;;;;10.50;6.13;;;4.20;72.50;;;;;;6253144;23;20256;-88
2022/04/21 01:52:51;;;;;;;8.43;6.07;;;4.30;72.30;;;;;;6249864;23;20547;-87
2022/04/21 01:55:18;;;;;;;7.30;5.30;;;4.40;70.90;;;;;;6251332;23;20534;-87
2022/04/21 01:57:49;;;;;;;6.73;5.40;;;4.50;69.30;;;;;;6250837;23;20205;-87
2022/04/21 02:00:31;;;;;;;7.70;5.87;;;4.50;69.20;;;;;;6250433;23;20205;-87
2022/04/21 02:03:13;;;;;;;8.10;5.80;;;4.40;69.10;;;;;;6252542;23;20530;-87
2022/04/21 02:05:55;;;;;;;7.03;5.57;;;4.40;69.10;;;;;;6253323;23;20688;-87
2022/04/21 02:08:24;;;;;;;8.50;6.00;;;4.30;69.10;;;;;;6253593;23;20200;-88
2022/04/21 02:10:55;;;;;;;10.00;5.93;;;4.30;71.60;;;;;;6227391;23;20189;-88
2022/04/21 02:13:25;;;;;;;8.83;5.73;;;4.10;73.00;;;;;;6255392;23;20237;-88
2022/04/21 02:16:01;;;;;;;8.47;5.50;;;3.90;74.40;;;;;;6228600;23;20181;-87
2022/04/21 02:18:37;;;;;;;7.47;6.00;;;3.90;75.20;;;;;;6254663;23;20185;-88
2022/04/21 02:21:07;;;;;;;8.67;5.93;;;4.00;74.70;;;;;;6255333;23;20547;-87
2022/04/21 02:23:41;;;;;;;7.37;5.87;;;4.00;75.50;;;;;;6254908;23;20208;-87
2022/04/21 02:26:19;;;;;;;10.17;5.87;;;4.10;73.30;;;;;;6254691;23;20348;-87
2022/04/21 02:28:55;;;;;;;7.77;5.60;;;4.00;73.30;;;;;;6255378;23;20169;-87
2022/04/21 02:31:22;;;;;;;9.67;5.60;;;4.00;74.00;;;;;;6255482;23;20181;-87
2022/04/21 02:33:56;;;;;;;6.57;5.53;;;4.00;74.60;;;;;;6255429;23;20173;-87
2022/04/21 02:36:32;;;;;;;10.20;5.93;;;3.90;73.90;;;;;;6256938;22;20162;-88
2022/04/21 02:39:03;;;;;;;6.97;5.33;;;3.90;74.40;;;;;;6256764;23;20173;-87
2022/04/21 02:41:32;;;;;;;8.13;5.93;;;3.60;75.90;;;;;;6256180;23;20176;-87
2022/04/21 02:44:01;;;;;;;8.03;5.70;;;3.50;76.40;;;;;;6255334;23;20193;-87
2022/04/21 02:50:19;;;;;;;6.67;5.53;;;3.40;77.90;;;;;;6255376;23;20164;-87
2022/04/21 02:53:13;;;;;;;8.70;5.83;;;3.60;76.80;;;;;;6256009;23;20162;-86
2022/04/21 02:58:44;;;;;;;6.40;5.33;;;3.70;75.10;;;;;;6257036;23;20160;-88
2022/04/21 03:01:13;;;;;;;6.37;5.33;;;3.70;74.70;;;;;;6258846;23;20166;-87
2022/04/21 03:04:28;;;;;;;8.77;5.73;;;3.60;75.80;;;;;;6258297;23;20158;-87
2022/04/21 03:06:55;;;;;;;6.20;5.20;;;3.50;77.00;;;;;;6259637;22;20170;-90
2022/04/21 03:09:26;;;;;;;6.00;5.27;;;3.30;76.90;;;;;;6257840;23;20225;-88
2022/04/21 03:12:06;;;;;;;6.00;5.40;;;3.30;77.50;;;;;;6256520;22;20216;-87
2022/04/21 03:15:10;;;;;;;7.70;5.13;;;3.30;78.20;;;;;;6255660;23;20233;-87
2022/04/21 03:17:52;;;;;;;7.60;5.30;;;3.40;78.20;;;;;;6258277;23;20185;-87
2022/04/21 03:26:26;;;;;;;8.50;5.53;;;3.40;76.80;;;;;;6259404;23;20164;-87
2022/04/21 03:28:54;;;;;;;6.83;5.47;;;3.40;76.80;;;;;;6258383;23;20161;-87
2022/04/21 03:31:25;;;;;;;8.13;5.67;;;3.30;77.60;;;;;;6257595;23;20500;-87
2022/04/21 03:33:56;;;;;;;9.27;5.50;;;3.40;77.80;;;;;;6258281;22;20552;-87
2022/04/21 03:36:32;;;;;;;6.90;5.80;;;3.40;77.00;;;;;;6255691;23;20197;-88
2022/04/21 03:39:26;;;;;;;8.90;5.80;;;3.40;77.40;;;;;;6258974;22;20161;-87
2022/04/21 03:41:58;;;;;;;7.70;5.30;;;3.30;77.40;;;;;;6258777;22;20157;-87
2022/04/21 03:44:34;;;;;;;7.20;5.77;;;3.30;77.90;;;;;;6257609;23;20243;-89
2022/04/21 03:47:01;;;;;;;6.43;5.20;;;3.30;77.50;;;;;;6257578;22;20188;-87
2022/04/21 03:49:30;;;;;;;7.43;5.37;;;3.50;77.60;;;;;;6257823;23;20204;-87
2022/04/21 03:52:01;;;;;;;7.47;5.47;;;3.50;77.20;;;;;;6256416;23;20185;-87
2022/04/21 03:54:31;;;;;;;7.40;5.37;;;3.50;77.90;;;;;;6256878;23;20442;-87
2022/04/21 03:57:27;;;;;;;8.73;5.93;;;3.50;77.90;;;;;;6255915;23;20196;-87
2022/04/21 04:00:25;;;;;;;8.03;5.30;;;3.50;77.10;;;;;;6255854;23;20173;-87
2022/04/21 04:03:31;;;;;;;7.03;5.67;;;3.70;77.40;;;;;;6256938;23;20167;-87
2022/04/21 04:10:51;;;;;;;6.90;5.53;;;3.70;76.60;;;;;;6257224;23;20219;-87
2022/04/21 04:11:53;;;;;;;9.60;5.47;;;3.90;76.30;;;;;;6256793;23;20184;-88
2022/04/21 04:14:21;;;;;;;9.53;6.17;;;3.90;76.20;;;;;;6256819;22;20193;-87
2022/04/21 04:16:48;;;;;;;7.23;5.77;;;3.90;75.30;;;;;;6255244;22;20185;-87
2022/04/21 04:19:31;;;;;;;7.67;5.60;;;4.10;74.90;;;;;;6253586;23;20208;-87
2022/04/21 04:22:44;;;;;;;8.43;5.27;;;4.10;74.40;;;;;;6256473;22;20170;-87
2022/04/21 04:25:15;;;;;;;8.50;5.40;;;4.20;73.50;;;;;;6253669;22;20288;-88
2022/04/21 04:27:49;;;;;;;7.17;5.20;;;4.20;75.00;;;;;;6253409;22;20193;-87
2022/04/21 04:30:19;;;;;;;8.23;5.33;;;4.20;75.20;;;;;;6255415;23;20185;-87
2022/04/21 04:33:19;;;;;;;7.03;5.67;;;4.10;75.60;;;;;;6255138;23;20165;-87
2022/04/21 04:35:55;;;;;;;10.07;5.97;;;4.20;75.70;;;;;;6253421;23;20204;-88
2022/04/21 04:38:22;;;;;;;8.67;5.03;;;4.30;75.00;;;;;;6252038;22;20680;-87
2022/04/21 04:40:51;;;;;;;7.50;5.90;;;4.40;73.10;;;;;;6249765;22;20211;-88
2022/04/21 04:43:18;;;;;;;13.20;5.60;;;4.50;74.30;;;;;;6252412;23;20176;-85
2022/04/21 04:49:01;;;;;;;6.13;5.03;;;4.70;72.10;;;;;;6255579;23;20157;-85
2022/04/21 04:51:42;;;;;;;7.30;5.50;;;4.90;69.70;;;;;;6254244;23;20189;-85
2022/04/21 04:54:19;;;;;;;7.17;5.40;;;4.90;69.60;;;;;;6253892;22;20596;-86
2022/04/21 04:56:51;;;;;;;10.30;5.40;;;5.00;69.80;;;;;;6253282;23;20245;-86
2022/04/21 04:59:18;;;;;;;8.17;6.27;;;5.00;69.80;;;;;;6252055;23;20204;-85
2022/04/21 05:01:49;;;;;;;7.30;5.87;;;4.90;69.60;;;;;;6253127;23;20162;-85
2022/04/21 05:04:18;;;;;;;9.47;5.77;;;5.00;69.70;;;;;;6255819;23;20186;-85
2022/04/21 05:07:01;;;;;;;11.13;5.87;;;5.20;70.00;;;;;;6256443;23;20193;-85
2022/04/21 05:09:31;;;;;;;9.53;6.23;;;5.40;70.10;;;;;;6253383;23;20212;-88
2022/04/21 05:12:15;;;;;;;9.13;6.30;;;5.60;70.40;;;;;;6252775;23;20221;-87
2022/04/21 05:15:07;;;;;;;14.60;7.97;;;5.70;70.40;;;;;;6254254;23;20475;-87
2022/04/21 05:17:37;;;;;;;9.70;7.70;;;5.80;70.60;;;;;;6253583;23;20237;-88
2022/04/21 05:20:14;;;;;;;12.17;7.80;;;5.80;70.60;;;;;;6255756;23;20173;-87
2022/04/21 05:23:04;;;;;;;11.97;7.57;;;6.00;70.70;;;;;;6257358;23;20739;-87
2022/04/21 05:25:36;;;;;;;11.17;8.17;;;6.10;70.90;;;;;;6257121;23;20201;-88
2022/04/21 05:28:07;;;;;;;12.60;8.03;;;6.10;70.90;;;;;;6259574;23;20582;-89
2022/04/21 05:33:24;;;;;;;14.87;7.80;;;6.40;70.50;;;;;;6258727;23;20201;-87
2022/04/21 05:35:51;;;;;;;12.27;7.60;;;6.30;71.10;;;;;;6260548;23;20165;-87
2022/04/21 05:38:21;;;;;;;9.43;7.43;;;6.40;71.20;;;;;;6261514;23;20172;-87
2022/04/21 05:41:03;;;;;;;10.67;7.70;;;6.50;67.30;;;;;;6258944;23;20178;-87
2022/04/21 05:43:57;;;;;;;10.73;7.70;;;6.60;65.90;;;;;;6256812;23;20190;-87
2022/04/21 05:46:25;;;;;;;9.07;7.87;;;6.80;65.60;;;;;;6266800;23;20181;-88
2022/04/21 05:48:54;;;;;;;9.97;7.57;;;7.00;60.40;;;;;;6267882;22;20184;-88
2022/04/21 05:54:29;;;;;;;11.17;8.13;;;7.10;59.80;;;;;;6262370;22;20613;-87
2022/04/21 05:57:10;;;;;;;13.43;7.37;;;7.30;56.60;;;;;;6254456;23;20220;-87
2022/04/21 06:00:31;;;;;;;11.57;7.73;;;7.80;54.40;;;;;;6257935;23;20176;-87
2022/04/21 08:56:45;;;;;;;11.32;8.80;;;18.10;13.60;;;;;;6221764;23;20166;-92
2022/04/21 08:59:37;;;;;;;12.43;9.43;;;18.40;13.30;;;;;;6158103;23;20721;-93
2022/04/21 09:02:05;;;;;;;10.18;8.48;;;19.30;11.30;;;;;;6156298;23;20179;-89
2022/04/21 09:04:43;;;;;;;8.93;8.02;;;20.00;11.00;;;;;;6153729;23;20318;-88
2022/04/21 09:07:32;;;;;;;11.18;8.23;;;20.50;11.30;;;;;;6152850;23;20254;-90
2022/04/21 09:10:11;;;;;;;10.88;8.77;;;21.40;9.90;;;;;;6151862;23;20199;-90
2022/04/21 09:12:43;;;;;;;9.98;8.55;;;22.10;8.90;;;;;;6152923;23;20167;-90
2022/04/21 09:15:17;;;;;;;9.60;8.60;;;23.40;8.30;;;;;;6131887;23;20225;-89
2022/04/21 09:18:03;;;;;;;9.30;8.40;;;24.50;5.60;;;;;;6187238;23;20173;-89
2022/04/21 09:20:34;;;;;;;11.00;9.00;;;23.50;6.70;;;;;;6217188;23;20168;-89
2022/04/21 09:23:02;;;;;;;9.65;8.73;;;24.00;6.80;;;;;;6214229;23;20322;-89
2022/04/21 09:25:47;;;;;;;10.20;8.65;;;23.50;6.70;;;;;;6214970;23;20237;-89
2022/04/21 09:28:25;;;;;;;15.43;9.38;;;24.80;6.30;;;;;;6214239;23;20161;-87
2022/04/21 09:30:58;;;;;;;10.65;8.60;;;24.70;4.90;;;;;;6213745;23;20498;-88
2022/04/21 09:33:55;;;;;;;9.07;7.88;;;25.10;5.60;;;;;;6214974;23;20164;-85
2022/04/21 09:36:49;;;;;;;9.30;8.48;;;26.10;4.30;;;;;;6217947;23;20165;-87
2022/04/21 09:39:39;;;;;;;9.98;8.98;;;26.40;5.00;;;;;;6216582;23;20756;-85
2022/04/21 09:42:08;;;;;;;10.07;9.07;;;26.10;4.80;;;;;;6218365;23;20164;-86
2022/04/21 09:47:32;;;;;;;11.15;8.85;;;25.30;4.70;;;;;;6216268;23;20216;-85
2022/04/21 09:50:12;;;;;;;9.85;8.85;;;25.30;5.00;;;;;;6215867;23;20158;-85
2022/04/21 09:53:03;;;;;;;10.25;9.25;;;25.30;5.50;;;;;;6217883;23;20182;-85
2022/04/21 09:55:32;;;;;;;8.85;7.95;;;24.30;6.40;;;;;;6216998;23;20169;-85
2022/04/21 09:58:06;;;;;;;8.65;7.75;;;24.60;6.10;;;;;;6216511;23;20212;-84
2022/04/21 10:00:41;;;;;;;9.52;8.13;;;24.60;6.50;;;;;;6217066;23;20468;-85
2022/04/21 10:03:10;;;;;;;11.93;8.68;;;24.10;8.60;;;;;;6217790;23;20184;-85
2022/04/21 10:05:39;;;;;;;9.35;8.52;;;24.20;6.80;;;;;;6217411;23;20302;-85
2022/04/21 10:08:20;;;;;;;8.95;8.10;;;23.60;6.50;;;;;;6218396;23;20541;-85
2022/04/21 10:10:56;;;;;;;9.38;8.57;;;21.80;9.30;;;;;;6217386;23;20190;-85
2022/04/21 10:13:26;;;;;;;9.75;8.43;;;22.30;8.80;;;;;;6217911;23;20158;-86
2022/04/21 10:19:23;;;;;;;11.90;8.32;;;22.90;8.40;;;;;;6217508;23;20189;-87
2022/04/21 10:22:14;;;;;;;11.27;8.50;;;21.50;12.00;;;;;;6217430;23;20183;-88
2022/04/21 10:28:37;;;;;;;10.05;8.63;;;22.60;9.40;;;;;;6217667;23;20169;-86
2022/04/21 10:31:43;;;;;;;11.45;8.68;;;22.90;9.10;;;;;;6218412;23;20213;-91
2022/04/21 10:34:37;;;;;;;9.48;8.45;;;22.70;8.20;;;;;;6213019;23;20256;-89
2022/04/21 10:37:21;;;;;;;9.95;8.93;;;22.50;9.00;;;;;;6210642;23;20260;-89
2022/04/21 10:40:15;;;;;;;11.10;8.63;;;22.60;8.70;;;;;;6223387;23;20205;-89
2022/04/21 10:43:31;;;;;;;10.88;8.75;;;22.60;8.60;;;;;;6231822;23;20193;-92
2022/04/21 10:46:05;;;;;;;9.38;8.48;;;22.30;9.80;;;;;;6222890;22;20275;-88
2022/04/21 10:48:42;;;;;;;9.27;8.43;;;23.40;8.30;;;;;;6232607;23;20243;-87
2022/04/21 10:58:52;;;;;;;9.55;7.95;;;23.50;7.30;;;;;;6180749;23;20508;-91
2022/04/21 11:01:31;;;;;;;8.55;7.80;;;23.00;7.90;;;;;;6121658;23;20184;-87
2022/04/21 11:04:13;;;;;;;8.90;8.00;;;22.40;10.30;;;;;;6122966;23;20255;-89
2022/04/21 11:45:09;;;;;;;10.98;6.57;;;16.80;14.60;;;;;;6269160;23;20209;-89
2022/04/21 12:42:55;;;;;;;8.18;6.88;;;16.30;16.10;;;;;;6174484;23;20223;-92
2022/04/21 17:41:11;;;;;;;6.65;5.35;;;13.60;23.00;;;;;;6311069;22;20214;-87
2022/04/21 17:44:15;;;;;;;7.60;6.75;;;13.50;23.30;;;;;;6354846;22;20168;-91
2022/04/21 17:46:42;;;;;;;7.07;6.22;;;13.40;23.90;;;;;;6311475;22;20271;-87
